Time;durP1;ratioP1;P1;durP2;ratioP2;P2;SDS_P1;SDS_P2;PMS_P1;PMS_P2;Temp;Humidity;BMP_temperature;BMP_pressure;BME280_temperature;BME280_humidity;BME280_pressure;Samples;Min_cycle;Max_cycle;Signal;HPM_P1;HPM_P2
2022/03/17 00:02:19;;;;;;;18.35;13.20;;;10.80;82.70;;;;;;5038208;28;20049;-84
2022/03/17 00:04:46;;;;;;;20.35;13.00;;;10.70;82.60;;;;;;5038034;28;20049;-85
2022/03/17 00:07:13;;;;;;;19.55;12.80;;;10.70;82.50;;;;;;5038001;28;20048;-84
2022/03/17 00:09:40;;;;;;;19.60;14.38;;;10.70;82.50;;;;;;5035402;28;20045;-86
2022/03/17 00:12:13;;;;;;;19.05;12.55;;;10.70;82.50;;;;;;5036753;28;20053;-84
2022/03/17 00:14:40;;;;;;;17.08;13.73;;;10.60;82.50;;;;;;5037760;28;20049;-85
2022/03/17 00:17:08;;;;;;;18.27;13.13;;;10.60;82.40;;;;;;5037759;28;20041;-84
2022/03/17 00:19:36;;;;;;;16.13;12.52;;;10.60;82.40;;;;;;5037866;28;20052;-85
2022/03/17 00:22:08;;;;;;;19.23;12.30;;;10.60;82.40;;;;;;5037598;28;20043;-85
2022/03/17 00:24:37;;;;;;;16.30;11.75;;;10.50;82.30;;;;;;5034521;28;20052;-84
2022/03/17 00:27:11;;;;;;;14.05;11.93;;;10.50;82.20;;;;;;5037462;28;20072;-84
2022/03/17 00:29:39;;;;;;;22.33;11.88;;;10.50;82.20;;;;;;5037087;28;20457;-84
2022/03/17 00:32:08;;;;;;;21.83;13.25;;;10.50;82.20;;;;;;5037553;28;20056;-84
2022/03/17 00:35:35;;;;;;;18.75;12.63;;;10.40;82.10;;;;;;5037516;28;20460;-85
2022/03/17 00:37:25;;;;;;;18.30;12.40;;;10.40;82.10;;;;;;5037332;28;20053;-84
2022/03/17 00:39:53;;;;;;;17.27;13.02;;;10.40;82.10;;;;;;5035184;28;20433;-84
2022/03/17 00:42:21;;;;;;;16.27;13.38;;;10.40;82.00;;;;;;5033742;28;20540;-84
2022/03/17 00:44:50;;;;;;;20.52;13.15;;;10.40;82.00;;;;;;5039046;28;20061;-84
2022/03/17 00:47:17;;;;;;;17.05;13.18;;;10.40;82.00;;;;;;5037244;28;20052;-85
2022/03/17 00:49:44;;;;;;;22.17;13.63;;;10.40;82.00;;;;;;5037196;28;20465;-84
2022/03/17 00:52:11;;;;;;;18.05;13.10;;;10.40;81.90;;;;;;5037234;28;20041;-85
2022/03/17 00:54:39;;;;;;;19.58;14.43;;;10.30;81.90;;;;;;5034306;28;20053;-84
2022/03/17 00:57:07;;;;;;;18.92;14.40;;;10.30;81.90;;;;;;5036329;28;20058;-85
2022/03/17 00:59:36;;;;;;;16.65;13.75;;;10.30;81.90;;;;;;5037024;28;20056;-84
2022/03/17 01:02:04;;;;;;;20.58;14.18;;;10.30;81.80;;;;;;5035872;28;20050;-84
2022/03/17 01:04:31;;;;;;;21.63;13.40;;;10.20;81.80;;;;;;5036900;28;20045;-84
2022/03/17 01:06:58;;;;;;;19.58;14.68;;;10.20;81.80;;;;;;5035667;28;20045;-84
2022/03/17 01:09:28;;;;;;;20.45;14.25;;;10.20;81.80;;;;;;5014487;28;20042;-86
2022/03/17 01:11:55;;;;;;;18.05;14.02;;;10.20;81.70;;;;;;5046071;28;20399;-86
2022/03/17 01:14:23;;;;;;;17.65;13.05;;;10.20;81.70;;;;;;5035606;28;20049;-86
2022/03/17 01:16:50;;;;;;;18.58;14.32;;;10.20;81.70;;;;;;5036654;28;20054;-85
2022/03/17 01:19:19;;;;;;;18.50;13.35;;;10.20;81.60;;;;;;5036565;28;20488;-85
2022/03/17 01:21:50;;;;;;;17.73;13.50;;;10.10;81.60;;;;;;5034695;28;20053;-85
2022/03/17 01:24:17;;;;;;;15.68;13.60;;;10.10;81.60;;;;;;5033536;28;20049;-85
2022/03/17 01:26:45;;;;;;;17.50;13.73;;;10.10;81.60;;;;;;5038252;28;20060;-85
2022/03/17 01:29:15;;;;;;;15.52;12.50;;;10.00;81.50;;;;;;5035116;28;20080;-85
2022/03/17 01:31:42;;;;;;;16.70;13.23;;;10.00;81.50;;;;;;5036298;28;20069;-84
2022/03/17 01:34:09;;;;;;;17.67;12.80;;;10.00;81.50;;;;;;5036462;28;20045;-84
2022/03/17 01:36:37;;;;;;;19.85;12.70;;;9.90;81.50;;;;;;5032109;28;20045;-84
2022/03/17 01:39:04;;;;;;;16.85;13.82;;;10.00;81.50;;;;;;5036005;28;20045;-84
2022/03/17 01:41:31;;;;;;;18.83;13.43;;;9.90;81.60;;;;;;5037075;28;20049;-84
2022/03/17 01:43:58;;;;;;;18.08;13.20;;;9.90;81.60;;;;;;5036202;28;20049;-84
2022/03/17 01:46:25;;;;;;;14.93;12.90;;;9.90;81.60;;;;;;5036174;28;20049;-84
2022/03/17 01:48:52;;;;;;;15.63;13.35;;;9.90;81.60;;;;;;5035320;28;20041;-84
2022/03/17 01:51:19;;;;;;;19.23;13.30;;;9.90;81.60;;;;;;5031227;28;20057;-84
2022/03/17 01:53:47;;;;;;;18.88;13.32;;;9.90;81.60;;;;;;5037958;28;20211;-84
2022/03/17 01:56:15;;;;;;;16.90;13.23;;;9.90;81.60;;;;;;5034501;28;20056;-85
2022/03/17 01:58:44;;;;;;;18.90;13.13;;;9.80;81.60;;;;;;5035977;28;20046;-84
2022/03/17 02:01:12;;;;;;;16.65;11.98;;;9.80;81.60;;;;;;5035818;28;20501;-86
2022/03/17 02:03:43;;;;;;;15.65;12.27;;;9.90;81.60;;;;;;5033214;28;20132;-85
2022/03/17 02:06:10;;;;;;;15.45;12.05;;;9.80;81.60;;;;;;5033610;28;20053;-85
2022/03/17 02:08:38;;;;;;;18.63;12.07;;;9.80;81.50;;;;;;5034614;28;20494;-86
2022/03/17 02:13:50;;;;;;;14.93;11.43;;;9.70;81.50;;;;;;5035103;28;20534;-85
2022/03/17 02:16:17;;;;;;;14.07;11.40;;;9.70;81.50;;;;;;5035628;28;20052;-85
2022/03/17 02:18:46;;;;;;;13.57;11.35;;;9.70;81.40;;;;;;5032550;28;20409;-85
2022/03/17 02:21:14;;;;;;;13.35;11.02;;;9.70;81.40;;;;;;5032468;28;20045;-85
2022/03/17 02:26:27;;;;;;;16.05;11.15;;;9.60;81.40;;;;;;5034537;28;20414;-84
2022/03/17 02:28:54;;;;;;;13.30;10.80;;;9.60;81.30;;;;;;5035414;28;20053;-85
2022/03/17 02:31:21;;;;;;;14.50;11.90;;;9.60;81.30;;;;;;5035341;28;20049;-84
2022/03/17 02:33:50;;;;;;;15.82;11.27;;;9.50;81.20;;;;;;5034032;28;20045;-84
2022/03/17 02:36:18;;;;;;;13.60;11.02;;;9.50;81.20;;;;;;5031918;28;20058;-85
2022/03/17 02:38:45;;;;;;;19.50;11.70;;;9.50;81.10;;;;;;5037125;28;20136;-85
2022/03/17 02:41:22;;;;;;;16.60;11.52;;;9.50;81.10;;;;;;5034620;28;20464;-84
2022/03/17 02:43:55;;;;;;;13.38;11.20;;;9.40;81.00;;;;;;5035149;28;20129;-85
2022/03/17 02:46:22;;;;;;;15.40;10.98;;;9.40;81.00;;;;;;5035218;28;20053;-85
2022/03/17 02:48:52;;;;;;;14.70;11.13;;;9.40;81.00;;;;;;5034103;28;20098;-85
2022/03/17 02:51:19;;;;;;;13.18;10.75;;;9.40;80.90;;;;;;5031356;28;20056;-85
2022/03/17 02:53:46;;;;;;;14.68;11.07;;;9.30;80.90;;;;;;5036502;28;20518;-85
2022/03/17 02:56:13;;;;;;;15.10;10.82;;;9.30;80.90;;;;;;5035041;28;20045;-84
2022/03/17 02:58:40;;;;;;;14.45;10.43;;;9.20;80.90;;;;;;5034772;28;20132;-84
2022/03/17 03:01:07;;;;;;;13.30;11.25;;;9.20;80.90;;;;;;5034731;28;20080;-84
2022/03/17 03:03:34;;;;;;;12.30;9.85;;;9.20;80.90;;;;;;5031865;28;20049;-84
2022/03/17 03:06:01;;;;;;;12.30;9.82;;;9.20;80.90;;;;;;5034875;28;20053;-84
2022/03/17 03:08:29;;;;;;;14.57;10.35;;;9.20;80.90;;;;;;5034080;28;20506;-84
2022/03/17 03:10:59;;;;;;;14.68;10.52;;;9.20;80.90;;;;;;5034770;28;20057;-84
2022/03/17 03:13:26;;;;;;;15.45;10.02;;;9.10;80.90;;;;;;5034725;28;20045;-83
2022/03/17 03:15:53;;;;;;;12.48;9.52;;;9.10;80.90;;;;;;5033871;28;20084;-84
2022/03/17 03:18:20;;;;;;;12.32;9.60;;;9.10;80.80;;;;;;5030958;28;20465;-84
2022/03/17 03:20:47;;;;;;;13.32;9.85;;;9.10;80.80;;;;;;5036527;28;20054;-84
2022/03/17 03:23:14;;;;;;;12.00;9.70;;;9.10;80.80;;;;;;5034250;28;20125;-84
2022/03/17 03:25:40;;;;;;;11.75;9.30;;;9.00;80.80;;;;;;5035531;28;20073;-84
2022/03/17 03:28:09;;;;;;;12.18;9.25;;;9.00;80.70;;;;;;5038907;28;20052;-84
2022/03/17 03:30:37;;;;;;;11.95;9.25;;;9.00;80.70;;;;;;5035356;28;20089;-84
2022/03/17 03:33:08;;;;;;;11.57;8.98;;;9.00;80.60;;;;;;5037117;28;20068;-84
2022/03/17 03:38:22;;;;;;;13.98;8.80;;;9.00;80.60;;;;;;5036004;28;20049;-83
2022/03/17 03:40:49;;;;;;;9.98;8.02;;;8.90;80.50;;;;;;5038406;28;20050;-84
2022/03/17 03:43:16;;;;;;;11.13;8.35;;;8.90;80.50;;;;;;5038466;28;20045;-84
2022/03/17 03:45:43;;;;;;;10.65;8.50;;;8.90;80.40;;;;;;5036393;28;20041;-86
2022/03/17 03:48:10;;;;;;;11.07;7.80;;;8.90;80.30;;;;;;5036232;28;20052;-86
2022/03/17 03:50:37;;;;;;;9.38;7.97;;;8.90;80.30;;;;;;5038352;28;20056;-85
2022/03/17 03:53:05;;;;;;;9.95;7.88;;;8.90;80.20;;;;;;5037893;28;20049;-85
2022/03/17 03:55:32;;;;;;;9.18;7.28;;;8.90;80.10;;;;;;5037155;28;20053;-85
2022/03/17 03:58:00;;;;;;;10.65;7.82;;;8.90;80.10;;;;;;5038315;28;20120;-85
2022/03/17 04:00:33;;;;;;;10.30;7.85;;;8.80;80.00;;;;;;5018439;28;20050;-86
2022/03/17 04:03:03;;;;;;;10.15;7.82;;;8.80;80.00;;;;;;5048167;28;20072;-84
2022/03/17 04:05:33;;;;;;;11.77;7.70;;;8.80;79.90;;;;;;5039086;28;20403;-85
2022/03/17 04:08:03;;;;;;;8.80;7.38;;;8.80;79.90;;;;;;5037692;28;20063;-85
2022/03/17 04:10:31;;;;;;;9.30;7.95;;;8.80;79.90;;;;;;5037998;28;20128;-84
2022/03/17 04:12:58;;;;;;;9.40;7.60;;;8.80;79.80;;;;;;5036719;28;20409;-84
2022/03/17 04:15:25;;;;;;;10.57;7.38;;;8.70;79.80;;;;;;5049630;28;20061;-85
2022/03/17 04:17:52;;;;;;;9.95;7.78;;;8.80;79.80;;;;;;5046679;28;20049;-85
2022/03/17 04:20:19;;;;;;;9.18;7.03;;;8.70;79.70;;;;;;5038047;28;20446;-84
2022/03/17 04:22:46;;;;;;;9.27;7.03;;;8.70;79.70;;;;;;5037382;28;20045;-84
2022/03/17 04:25:14;;;;;;;9.48;7.78;;;8.70;79.70;;;;;;5037780;28;20107;-85
2022/03/17 04:27:42;;;;;;;8.70;6.95;;;8.70;79.70;;;;;;5035325;28;20042;-84
2022/03/17 04:30:09;;;;;;;9.63;7.63;;;8.70;79.60;;;;;;5035635;28;20472;-84
2022/03/17 04:32:36;;;;;;;8.35;7.03;;;8.60;79.60;;;;;;5039460;28;20046;-85
2022/03/17 04:35:04;;;;;;;9.93;6.93;;;8.60;79.50;;;;;;5037214;28;20049;-84
2022/03/17 04:37:30;;;;;;;7.97;7.10;;;8.60;79.50;;;;;;5037109;28;20045;-85
2022/03/17 04:39:58;;;;;;;9.70;7.35;;;8.60;79.50;;;;;;5037418;28;20591;-84
2022/03/17 04:42:25;;;;;;;10.77;7.35;;;8.60;79.50;;;;;;5017188;28;20042;-85
2022/03/17 04:44:52;;;;;;;9.75;6.95;;;8.60;79.40;;;;;;5038229;28;20100;-84
2022/03/17 04:47:18;;;;;;;9.20;7.53;;;8.50;79.40;;;;;;5037327;28;20049;-84
2022/03/17 04:49:45;;;;;;;11.18;7.20;;;8.50;79.30;;;;;;5036953;28;20624;-84
2022/03/17 04:54:58;;;;;;;8.70;7.05;;;8.50;79.20;;;;;;5036887;28;20076;-85
2022/03/17 04:57:27;;;;;;;10.57;7.72;;;8.50;79.10;;;;;;5017111;28;20499;-85
2022/03/17 04:59:54;;;;;;;10.27;6.80;;;8.50;79.00;;;;;;5038977;28;20045;-85
2022/03/17 05:02:22;;;;;;;8.77;7.00;;;8.40;78.90;;;;;;5034471;28;20081;-85
2022/03/17 05:04:50;;;;;;;8.57;7.25;;;8.40;78.80;;;;;;5036616;28;20509;-85
2022/03/17 05:07:17;;;;;;;8.77;6.90;;;8.40;78.80;;;;;;5035740;28;20067;-85
2022/03/17 05:09:45;;;;;;;12.50;7.10;;;8.40;78.70;;;;;;5034953;28;20041;-85
2022/03/17 05:12:11;;;;;;;9.38;7.40;;;8.40;78.70;;;;;;5033099;28;20045;-85
2022/03/17 05:14:38;;;;;;;11.07;7.53;;;8.40;78.70;;;;;;5038752;28;20057;-85
2022/03/17 05:17:05;;;;;;;10.25;7.82;;;8.40;78.60;;;;;;5036878;28;20457;-85
2022/03/17 05:19:34;;;;;;;9.77;7.70;;;8.30;78.60;;;;;;5036369;28;20462;-85
2022/03/17 05:22:00;;;;;;;12.85;8.45;;;8.30;78.60;;;;;;5036595;28;20056;-85
2022/03/17 05:24:28;;;;;;;9.95;7.57;;;8.30;78.50;;;;;;5032553;28;20053;-85
2022/03/17 05:26:57;;;;;;;11.18;8.18;;;8.30;78.50;;;;;;5038445;28;20061;-85
2022/03/17 05:29:24;;;;;;;12.55;8.15;;;8.30;78.50;;;;;;5035409;28;20085;-85
2022/03/17 05:31:51;;;;;;;11.55;7.97;;;8.30;78.40;;;;;;5035220;28;20506;-85
2022/03/17 05:34:18;;;;;;;12.18;7.80;;;8.30;78.40;;;;;;5035898;28;20045;-84
2022/03/17 05:36:45;;;;;;;11.90;8.48;;;8.20;78.30;;;;;;5034558;28;20083;-84
2022/03/17 05:39:12;;;;;;;12.10;8.40;;;8.20;78.30;;;;;;5033778;28;20049;-85
2022/03/17 05:41:39;;;;;;;9.63;7.82;;;8.20;78.30;;;;;;5038147;28;20100;-85
2022/03/17 05:44:07;;;;;;;11.75;7.80;;;8.20;78.20;;;;;;5036198;28;20050;-85
2022/03/17 05:46:34;;;;;;;11.18;8.45;;;8.20;78.20;;;;;;5036191;28;20049;-84
2022/03/17 05:49:02;;;;;;;11.85;8.45;;;8.20;78.20;;;;;;5034999;28;20049;-84
2022/03/17 05:51:28;;;;;;;11.05;8.00;;;8.10;78.10;;;;;;5032033;28;20053;-85
2022/03/17 05:53:55;;;;;;;13.07;8.57;;;8.10;78.10;;;;;;5036478;28;20046;-85
2022/03/17 05:56:22;;;;;;;12.00;8.70;;;8.10;78.10;;;;;;5033516;28;20058;-84
2022/03/17 05:58:49;;;;;;;11.10;8.13;;;8.10;78.10;;;;;;5035888;28;20414;-85
2022/03/17 06:01:17;;;;;;;12.95;8.13;;;8.00;78.00;;;;;;5035815;28;20045;-85
2022/03/17 06:03:44;;;;;;;11.40;8.82;;;8.00;78.10;;;;;;5032378;28;20131;-85
2022/03/17 06:06:11;;;;;;;11.07;8.65;;;8.00;78.10;;;;;;5033300;28;20052;-84
2022/03/17 06:08:39;;;;;;;13.73;8.95;;;8.00;78.00;;;;;;5037767;28;20041;-84
2022/03/17 06:11:07;;;;;;;12.30;9.55;;;8.00;78.10;;;;;;5035564;28;20426;-85
2022/03/17 06:13:35;;;;;;;11.13;8.90;;;8.00;78.00;;;;;;5035636;28;20453;-85
2022/03/17 06:16:02;;;;;;;11.93;9.15;;;7.90;78.10;;;;;;5035627;28;20064;-85
2022/03/17 06:18:29;;;;;;;12.90;9.55;;;7.90;78.10;;;;;;5031192;28;20045;-85
2022/03/17 06:20:56;;;;;;;13.80;9.10;;;7.90;78.10;;;;;;5037158;28;20106;-85
2022/03/17 06:23:23;;;;;;;11.25;9.02;;;7.90;78.10;;;;;;5035831;28;20053;-85
2022/03/17 06:25:50;;;;;;;12.02;8.77;;;7.90;78.10;;;;;;5035409;28;20107;-84
2022/03/17 06:28:18;;;;;;;13.50;9.30;;;7.90;78.20;;;;;;5035465;28;20060;-84
2022/03/17 06:30:45;;;;;;;13.82;10.02;;;7.90;78.20;;;;;;5033246;28;20053;-84
2022/03/17 06:33:13;;;;;;;12.10;9.18;;;7.90;78.20;;;;;;5032382;28;20057;-84
2022/03/17 06:35:40;;;;;;;11.00;8.68;;;7.90;78.20;;;;;;5037280;28;20095;-85
2022/03/17 06:38:07;;;;;;;12.57;10.35;;;7.90;78.20;;;;;;5035250;28;20076;-85
2022/03/17 06:40:37;;;;;;;13.93;9.10;;;7.90;78.30;;;;;;5034981;28;20049;-85
2022/03/17 06:43:05;;;;;;;14.00;10.00;;;7.90;78.30;;;;;;5033864;28;20505;-84
2022/03/17 06:45:32;;;;;;;11.90;9.52;;;7.90;78.30;;;;;;5031175;28;20060;-84
2022/03/17 06:47:59;;;;;;;15.00;10.35;;;7.90;78.30;;;;;;5040225;28;20453;-85
2022/03/17 06:50:26;;;;;;;13.88;9.90;;;7.90;78.30;;;;;;5036191;28;20546;-85
2022/03/17 06:52:55;;;;;;;13.73;9.85;;;7.90;78.30;;;;;;5034742;28;20045;-84
2022/03/17 06:55:23;;;;;;;14.18;10.57;;;7.90;78.30;;;;;;5034741;28;20053;-84
2022/03/17 06:57:50;;;;;;;13.40;10.38;;;7.90;78.30;;;;;;5033471;28;20052;-84
2022/03/17 07:00:19;;;;;;;13.05;9.57;;;7.90;78.40;;;;;;5030836;28;20057;-84
2022/03/17 07:02:47;;;;;;;13.23;9.80;;;7.90;78.30;;;;;;5036507;28;20407;-85
2022/03/17 07:05:14;;;;;;;14.82;9.95;;;7.90;78.40;;;;;;5034572;28;20087;-85
2022/03/17 07:07:43;;;;;;;11.80;9.48;;;7.90;78.40;;;;;;5034637;28;20057;-85
2022/03/17 07:10:12;;;;;;;12.40;9.82;;;7.90;78.40;;;;;;5033293;28;20506;-85
2022/03/17 07:12:41;;;;;;;15.77;9.93;;;7.90;78.40;;;;;;5031718;28;20103;-85
2022/03/17 07:15:09;;;;;;;13.88;10.15;;;7.90;78.30;;;;;;5032463;28;20505;-84
2022/03/17 07:17:41;;;;;;;15.77;10.32;;;7.90;78.40;;;;;;5036469;28;20053;-85
2022/03/17 07:20:21;;;;;;;12.07;10.30;;;7.90;78.40;;;;;;5034228;28;20049;-85
2022/03/17 07:22:49;;;;;;;13.93;9.95;;;7.90;78.30;;;;;;5033182;28;20683;-85
2022/03/17 07:25:17;;;;;;;15.27;10.30;;;7.90;78.30;;;;;;5034353;28;20565;-85
2022/03/17 07:27:46;;;;;;;12.77;9.98;;;7.90;78.30;;;;;;5032397;28;20045;-85
2022/03/17 07:30:19;;;;;;;14.25;10.63;;;7.90;78.30;;;;;;5030991;28;20056;-85
2022/03/17 07:32:48;;;;;;;13.07;10.05;;;7.90;78.30;;;;;;5036373;28;20077;-84
2022/03/17 07:35:15;;;;;;;13.45;10.02;;;7.90;78.30;;;;;;5034342;28;20136;-85
2022/03/17 07:37:42;;;;;;;12.25;9.40;;;7.90;78.30;;;;;;5034373;28;20049;-85
2022/03/17 07:40:10;;;;;;;13.55;9.90;;;8.00;78.30;;;;;;5034350;28;20103;-85
2022/03/17 07:42:38;;;;;;;15.27;10.82;;;8.00;78.30;;;;;;5031195;28;20042;-85
2022/03/17 07:45:05;;;;;;;15.98;11.48;;;8.00;78.30;;;;;;5033503;28;20041;-85
2022/03/17 07:47:33;;;;;;;17.75;12.93;;;8.00;78.30;;;;;;5035461;28;20056;-85
2022/03/17 07:50:04;;;;;;;17.85;11.63;;;8.00;78.30;;;;;;5034134;28;20060;-85
2022/03/17 07:52:31;;;;;;;15.18;11.60;;;8.00;78.30;;;;;;5034039;28;20140;-84
2022/03/17 07:54:58;;;;;;;15.57;11.23;;;8.00;78.30;;;;;;5034184;28;20098;-84
2022/03/17 07:57:25;;;;;;;15.98;11.63;;;8.00;78.20;;;;;;5045962;28;20046;-84
2022/03/17 07:59:52;;;;;;;15.73;11.63;;;8.00;78.20;;;;;;5035597;28;20045;-84
2022/03/17 08:02:20;;;;;;;15.68;11.48;;;8.00;78.20;;;;;;5033964;28;20053;-84
2022/03/17 08:04:50;;;;;;;15.23;11.55;;;8.00;78.10;;;;;;5034319;28;20562;-85
2022/03/17 08:07:17;;;;;;;16.25;10.68;;;8.00;78.10;;;;;;5034043;28;20107;-85
2022/03/17 08:09:45;;;;;;;16.92;11.35;;;8.00;78.10;;;;;;5024807;28;20042;-85
2022/03/17 08:12:12;;;;;;;15.23;11.15;;;8.00;78.10;;;;;;5028429;28;20057;-85
2022/03/17 08:14:39;;;;;;;15.35;11.30;;;8.00;78.00;;;;;;5030423;28;20053;-84
2022/03/17 08:17:06;;;;;;;16.70;11.68;;;8.00;78.00;;;;;;5027416;28;20403;-85
2022/03/17 08:19:33;;;;;;;15.90;11.85;;;8.00;78.00;;;;;;5026471;28;20160;-85
2022/03/17 08:22:00;;;;;;;15.60;11.57;;;8.10;78.00;;;;;;5019445;28;20053;-85
2022/03/17 08:24:32;;;;;;;16.67;11.98;;;8.10;78.00;;;;;;5021641;28;20053;-85
2022/03/17 08:27:02;;;;;;;16.77;12.30;;;8.10;78.00;;;;;;5017793;28;20081;-85
2022/03/17 08:29:30;;;;;;;17.58;12.25;;;8.10;78.00;;;;;;5019936;28;20231;-84
2022/03/17 08:32:04;;;;;;;14.90;11.38;;;8.10;78.00;;;;;;5018813;28;20057;-84
2022/03/17 08:34:32;;;;;;;17.13;11.75;;;8.10;78.00;;;;;;5019249;28;20100;-84
2022/03/17 08:36:59;;;;;;;14.95;11.65;;;8.10;77.90;;;;;;5017712;28;20065;-85
2022/03/17 08:39:27;;;;;;;15.27;11.85;;;8.10;78.00;;;;;;5014860;28;20275;-84
2022/03/17 08:41:55;;;;;;;16.60;12.15;;;8.10;77.90;;;;;;5028840;28;20050;-84
2022/03/17 08:44:23;;;;;;;16.33;12.00;;;8.10;78.00;;;;;;5019770;28;20050;-85
2022/03/17 08:49:36;;;;;;;16.83;12.23;;;8.10;77.90;;;;;;5029011;28;20053;-84
2022/03/17 08:52:03;;;;;;;15.10;11.63;;;8.10;77.90;;;;;;5029996;28;20057;-84
2022/03/17 08:54:33;;;;;;;17.65;12.25;;;8.10;77.90;;;;;;5014634;28;20041;-84
2022/03/17 08:57:01;;;;;;;14.95;11.73;;;8.10;77.90;;;;;;5048462;28;20100;-84
2022/03/17 08:59:33;;;;;;;14.07;10.35;;;8.20;77.90;;;;;;5019409;28;20466;-85
2022/03/17 09:02:01;;;;;;;15.93;11.13;;;8.20;77.90;;;;;;5018209;28;20514;-84
2022/03/17 09:04:29;;;;;;;14.68;11.20;;;8.20;77.90;;;;;;5018691;28;20112;-84
2022/03/17 09:07:00;;;;;;;16.92;11.50;;;8.20;77.90;;;;;;5018559;28;20410;-84
2022/03/17 09:09:36;;;;;;;19.92;11.30;;;8.20;77.90;;;;;;5014491;28;20421;-84
2022/03/17 09:12:05;;;;;;;14.90;10.70;;;8.20;77.90;;;;;;5029634;28;20421;-84
2022/03/17 09:14:40;;;;;;;17.90;11.48;;;8.20;77.90;;;;;;5028754;28;20581;-83
2022/03/17 09:17:07;;;;;;;20.67;11.13;;;8.20;77.90;;;;;;5020116;28;20046;-84
2022/03/17 09:19:34;;;;;;;17.88;10.93;;;8.20;77.90;;;;;;5018768;28;20049;-84
2022/03/17 09:22:01;;;;;;;16.90;10.85;;;8.20;77.90;;;;;;5017895;28;20056;-85
2022/03/17 09:24:30;;;;;;;19.17;10.50;;;8.30;77.90;;;;;;5013357;28;20045;-84
2022/03/17 09:26:58;;;;;;;13.90;10.73;;;8.30;77.90;;;;;;5024728;28;20057;-84
2022/03/17 09:29:28;;;;;;;14.65;10.15;;;8.30;77.80;;;;;;5026979;28;20507;-85
2022/03/17 09:31:58;;;;;;;15.05;10.20;;;8.30;77.80;;;;;;5017972;28;20056;-85
2022/03/17 09:34:26;;;;;;;15.75;9.95;;;8.30;77.80;;;;;;5018131;28;20081;-87
2022/03/17 09:36:53;;;;;;;13.95;9.80;;;8.40;77.80;;;;;;5017347;28;20049;-85
2022/03/17 09:42:06;;;;;;;12.57;9.50;;;8.40;77.70;;;;;;5028748;28;20453;-85
2022/03/17 09:44:33;;;;;;;13.32;9.10;;;8.40;77.70;;;;;;5018422;28;20449;-85
2022/03/17 09:47:03;;;;;;;12.20;9.60;;;8.40;77.60;;;;;;5049642;28;20053;-85
2022/03/17 09:49:30;;;;;;;14.25;9.05;;;8.50;77.60;;;;;;5019088;28;20049;-84
2022/03/17 09:51:58;;;;;;;15.45;9.48;;;8.40;77.60;;;;;;5029116;28;20060;-85
2022/03/17 09:54:25;;;;;;;15.07;9.25;;;8.40;77.50;;;;;;5013076;28;20060;-85
2022/03/17 09:56:52;;;;;;;13.73;8.38;;;8.50;77.50;;;;;;5017847;28;20108;-85
2022/03/17 09:59:19;;;;;;;12.35;9.43;;;8.50;77.40;;;;;;5017551;28;20112;-84
2022/03/17 10:01:46;;;;;;;13.55;9.10;;;8.50;77.40;;;;;;5049271;28;20046;-84
2022/03/17 10:04:14;;;;;;;14.00;8.40;;;8.60;77.40;;;;;;5017695;28;20425;-84
2022/03/17 10:06:42;;;;;;;14.60;9.43;;;8.50;77.30;;;;;;5014890;28;20046;-84
2022/03/17 10:09:09;;;;;;;11.27;8.70;;;8.50;77.30;;;;;;5014558;28;20056;-84
2022/03/17 10:11:37;;;;;;;13.40;9.48;;;8.60;77.30;;;;;;5028258;28;20049;-84
2022/03/17 10:14:06;;;;;;;14.88;8.35;;;8.60;77.30;;;;;;5019772;28;20064;-84
2022/03/17 10:16:33;;;;;;;13.48;9.05;;;8.70;77.20;;;;;;5017197;28;20521;-84
2022/03/17 10:19:12;;;;;;;11.88;8.55;;;8.70;77.20;;;;;;5017547;28;20049;-85
2022/03/17 10:21:41;;;;;;;13.52;8.00;;;8.70;77.20;;;;;;5014721;28;20053;-86
2022/03/17 10:24:08;;;;;;;17.48;9.80;;;8.70;77.10;;;;;;5014337;28;20045;-85
2022/03/17 10:26:50;;;;;;;11.55;8.45;;;8.80;77.10;;;;;;5027581;28;20124;-85
2022/03/17 10:29:22;;;;;;;12.63;8.50;;;8.80;77.10;;;;;;5029856;28;20053;-84
2022/03/17 10:32:05;;;;;;;13.90;8.35;;;8.90;77.00;;;;;;5021117;28;20054;-84
2022/03/17 10:34:56;;;;;;;13.27;8.25;;;8.90;77.00;;;;;;5016629;28;20529;-84
2022/03/17 10:37:25;;;;;;;12.07;7.90;;;8.90;77.00;;;;;;5017101;28;20465;-84
2022/03/17 10:39:56;;;;;;;12.10;8.40;;;8.90;76.90;;;;;;5015693;28;20052;-84
2022/03/17 10:42:26;;;;;;;11.60;8.60;;;8.90;76.90;;;;;;5011699;28;20050;-84
2022/03/17 10:44:56;;;;;;;10.93;8.57;;;8.90;76.80;;;;;;5044053;28;20510;-84
2022/03/17 10:47:33;;;;;;;11.75;8.13;;;9.00;76.80;;;;;;5016959;28;20054;-84
2022/03/17 10:50:15;;;;;;;11.68;7.85;;;9.00;76.70;;;;;;5022859;28;20049;-84
2022/03/17 10:52:42;;;;;;;11.32;7.75;;;9.10;76.70;;;;;;5021739;28;20089;-84
2022/03/17 10:55:09;;;;;;;12.07;7.50;;;9.10;76.60;;;;;;5016839;28;20046;-84
2022/03/17 10:57:37;;;;;;;12.68;8.30;;;9.10;76.50;;;;;;5013703;28;20169;-84
2022/03/17 11:00:09;;;;;;;13.13;7.50;;;9.20;76.50;;;;;;5014711;28;20099;-84
2022/03/17 11:02:37;;;;;;;11.48;8.38;;;9.20;76.40;;;;;;5027081;28;20433;-84
2022/03/17 11:05:10;;;;;;;11.73;8.18;;;9.20;76.40;;;;;;5019277;28;20052;-84
2022/03/17 11:07:38;;;;;;;12.23;8.30;;;9.30;76.30;;;;;;5017137;28;20116;-85
2022/03/17 11:10:07;;;;;;;11.32;8.10;;;9.30;76.20;;;;;;5014657;28;20560;-84
2022/03/17 11:12:34;;;;;;;12.25;7.68;;;9.30;76.20;;;;;;5027997;28;20042;-85
2022/03/17 11:15:01;;;;;;;10.52;7.00;;;9.40;76.10;;;;;;5014635;28;20053;-85
2022/03/17 11:17:38;;;;;;;9.50;7.22;;;9.40;76.00;;;;;;5017015;28;20468;-85
2022/03/17 11:20:07;;;;;;;11.43;7.70;;;9.40;75.90;;;;;;5016491;28;20482;-85
2022/03/17 11:22:36;;;;;;;10.25;7.40;;;9.40;75.90;;;;;;5015651;28;20046;-85
2022/03/17 11:25:19;;;;;;;11.52;7.50;;;9.40;75.80;;;;;;5016384;28;20402;-84
2022/03/17 11:27:50;;;;;;;9.98;7.40;;;9.50;75.70;;;;;;5013608;28;20045;-84
2022/03/17 11:30:18;;;;;;;10.57;7.40;;;9.50;75.70;;;;;;5027638;28;20589;-85
2022/03/17 11:33:27;;;;;;;11.57;7.90;;;9.50;75.60;;;;;;5016139;28;20058;-84
2022/03/17 11:36:00;;;;;;;11.00;7.95;;;9.60;75.50;;;;;;5011713;28;20045;-84
2022/03/17 11:38:30;;;;;;;14.00;8.20;;;9.60;75.40;;;;;;5012402;28;20054;-85
2022/03/17 11:41:16;;;;;;;13.38;8.45;;;9.60;75.30;;;;;;5019749;28;20113;-86
2022/03/17 11:43:46;;;;;;;11.60;8.50;;;9.70;75.20;;;;;;5019537;28;20041;-85
2022/03/17 11:46:22;;;;;;;13.00;8.30;;;9.70;75.10;;;;;;5027312;28;20050;-86
2022/03/17 11:48:56;;;;;;;12.60;7.50;;;9.70;75.00;;;;;;5017970;28;20085;-86
2022/03/17 11:51:25;;;;;;;11.15;8.30;;;9.70;74.90;;;;;;5032452;28;20053;-85
2022/03/17 11:53:52;;;;;;;11.32;7.68;;;9.80;74.90;;;;;;5031309;28;20049;-85
2022/03/17 11:56:43;;;;;;;11.65;8.25;;;9.90;74.80;;;;;;5029435;28;20433;-85
2022/03/17 11:59:14;;;;;;;13.15;8.57;;;9.90;74.70;;;;;;5028477;28;20053;-85
2022/03/17 12:01:42;;;;;;;12.63;8.18;;;9.90;74.50;;;;;;5033022;28;20429;-85
2022/03/17 12:04:22;;;;;;;11.55;8.23;;;9.90;74.40;;;;;;5029988;28;20061;-85
2022/03/17 12:06:55;;;;;;;11.95;7.75;;;9.90;74.30;;;;;;5017118;28;20514;-85
2022/03/17 12:09:35;;;;;;;14.98;8.75;;;10.00;74.20;;;;;;5031937;28;20079;-85
2022/03/17 12:12:15;;;;;;;15.13;9.27;;;10.00;74.10;;;;;;5031155;28;20053;-85
2022/03/17 12:15:02;;;;;;;15.98;8.60;;;10.00;74.00;;;;;;5019933;28;20049;-84
2022/03/17 12:17:29;;;;;;;12.88;8.32;;;10.10;73.90;;;;;;5020562;28;20510;-84
2022/03/17 12:20:06;;;;;;;13.10;8.05;;;10.10;73.90;;;;;;5019560;28;20384;-84
2022/03/17 12:22:37;;;;;;;13.68;8.63;;;10.20;73.80;;;;;;5021190;28;20056;-85
2022/03/17 12:25:23;;;;;;;13.50;8.93;;;10.20;73.70;;;;;;5030366;28;20418;-84
2022/03/17 12:27:58;;;;;;;15.63;8.20;;;10.20;73.60;;;;;;5018140;28;20465;-84
2022/03/17 12:30:28;;;;;;;14.55;8.82;;;10.20;73.50;;;;;;5016495;28;20126;-85
2022/03/17 12:33:01;;;;;;;12.50;8.10;;;10.30;73.40;;;;;;5015466;28;20050;-84
2022/03/17 12:35:31;;;;;;;13.95;8.82;;;10.30;73.40;;;;;;5014499;28;20129;-84
2022/03/17 12:38:19;;;;;;;14.50;8.25;;;10.40;73.30;;;;;;5019437;28;20057;-85
2022/03/17 12:40:48;;;;;;;13.00;8.40;;;10.40;73.20;;;;;;5019275;28;20046;-85
2022/03/17 12:43:18;;;;;;;12.45;9.15;;;10.40;73.20;;;;;;5019300;28;20460;-84
2022/03/17 12:45:51;;;;;;;10.45;7.78;;;10.40;73.10;;;;;;5017339;28;20100;-85
2022/03/17 12:48:20;;;;;;;11.30;7.85;;;10.40;73.00;;;;;;5016048;28;20057;-85
2022/03/17 12:50:47;;;;;;;13.35;8.55;;;10.50;72.90;;;;;;5030227;28;20045;-85
2022/03/17 12:53:14;;;;;;;11.15;7.40;;;10.50;72.80;;;;;;5027061;28;20053;-85
2022/03/17 12:55:41;;;;;;;12.13;7.82;;;10.50;72.70;;;;;;5024888;28;20042;-85
2022/03/17 12:58:15;;;;;;;13.80;8.70;;;10.50;72.70;;;;;;5017159;28;20050;-85
2022/03/17 13:00:43;;;;;;;18.35;8.45;;;10.60;72.60;;;;;;5030296;28;20100;-84
2022/03/17 13:03:16;;;;;;;11.98;8.30;;;10.60;72.50;;;;;;5016036;28;20224;-85
2022/03/17 13:08:40;;;;;;;12.45;8.90;;;10.70;72.30;;;;;;5014681;28;20060;-84
2022/03/17 13:14:21;;;;;;;12.65;8.43;;;10.70;72.10;;;;;;5019086;28;20053;-84